createdAt,value
2018-06-25T00:01:19.640Z,2.20
2018-06-25T00:03:48.996Z,2.30
2018-06-25T00:06:18.328Z,2.33
2018-06-25T00:08:47.680Z,2.27
2018-06-25T00:11:17.050Z,2.30
2018-06-25T00:13:46.416Z,2.10
2018-06-25T00:16:15.784Z,2.23
2018-06-25T00:18:45.141Z,1.97
2018-06-25T00:21:14.666Z,2.53
2018-06-25T00:23:44.024Z,2.00
2018-06-25T00:26:13.388Z,1.93
2018-06-25T00:28:42.896Z,1.70
2018-06-25T00:31:12.260Z,1.47
2018-06-25T00:33:41.603Z,1.70
2018-06-25T00:36:10.956Z,1.77
2018-06-25T00:38:40.330Z,1.53
2018-06-25T00:41:09.672Z,1.60
2018-06-25T00:43:39.064Z,1.23
2018-06-25T00:46:08.502Z,1.43
2018-06-25T00:48:37.860Z,1.70
2018-06-25T00:51:07.616Z,1.40
2018-06-25T00:53:37.037Z,1.97
2018-06-25T00:56:06.421Z,1.60
2018-06-25T00:58:47.262Z,2.60
2018-06-25T01:01:16.614Z,1.70
2018-06-25T01:03:46.159Z,2.10
2018-06-25T01:06:15.586Z,2.00
2018-06-25T01:08:44.903Z,1.87
2018-06-25T01:11:14.275Z,1.90
2018-06-25T01:13:43.644Z,1.80
2018-06-25T01:16:13.011Z,2.27
2018-06-25T01:18:42.412Z,2.37
2018-06-25T01:21:11.763Z,2.20
2018-06-25T01:23:41.283Z,1.97
2018-06-25T01:26:10.748Z,2.87
2018-06-25T01:28:40.088Z,2.50
2018-06-25T01:31:09.450Z,1.87
2018-06-25T01:33:38.851Z,2.50
2018-06-25T01:36:08.216Z,2.70
2018-06-25T01:38:37.616Z,2.20
2018-06-25T01:41:06.987Z,2.70
2018-06-25T01:43:36.347Z,2.63
2018-06-25T01:46:05.800Z,3.27
2018-06-25T01:48:35.312Z,2.03
2018-06-25T01:51:04.669Z,2.33
2018-06-25T01:53:34.107Z,2.00
2018-06-25T01:56:03.578Z,2.30
2018-06-25T01:58:32.987Z,2.37
2018-06-25T02:01:02.726Z,2.03
2018-06-25T02:03:32.088Z,2.47
2018-06-25T02:06:01.519Z,2.80
2018-06-25T02:08:30.937Z,2.23
2018-06-25T02:11:00.277Z,2.30
2018-06-25T02:13:29.643Z,2.23
2018-06-25T02:15:59.308Z,3.13
2018-06-25T02:18:31.901Z,2.70
2018-06-25T02:21:01.301Z,2.53
2018-06-25T02:23:30.639Z,2.90
2018-06-25T02:25:59.984Z,3.00
2018-06-25T02:28:29.399Z,2.60
2018-06-25T02:30:58.735Z,2.50
2018-06-25T02:33:28.119Z,2.40
2018-06-25T02:35:57.526Z,2.03
2018-06-25T02:38:27.691Z,2.90
2018-06-25T02:40:57.246Z,3.20
2018-06-25T02:43:26.596Z,2.73
2018-06-25T02:45:56.143Z,1.90
2018-06-25T02:48:25.461Z,2.67
2018-06-25T02:50:56.200Z,1.70
2018-06-25T02:53:25.564Z,2.03
2018-06-25T02:55:55.268Z,2.37
2018-06-25T02:58:24.655Z,2.63
2018-06-25T03:00:54.012Z,2.17
2018-06-25T03:03:23.371Z,3.23
2018-06-25T03:05:52.719Z,3.20
2018-06-25T03:08:22.057Z,2.77
2018-06-25T03:10:51.832Z,2.00
2018-06-25T03:13:21.181Z,2.17
2018-06-25T03:15:50.523Z,2.40
2018-06-25T03:18:19.900Z,2.17
2018-06-25T03:20:49.247Z,2.40
2018-06-25T03:23:18.582Z,2.40
2018-06-25T03:25:47.896Z,2.10
2018-06-25T03:28:17.804Z,2.30
2018-06-25T03:30:47.448Z,2.90
2018-06-25T03:33:16.776Z,2.20
2018-06-25T03:35:46.150Z,2.50
2018-06-25T03:38:15.509Z,1.80
2018-06-25T03:40:44.914Z,1.80
2018-06-25T03:43:14.935Z,2.80
2018-06-25T03:45:44.503Z,2.33
2018-06-25T03:48:13.890Z,1.80
2018-06-25T03:50:43.552Z,1.90
2018-06-25T03:53:12.955Z,2.03
2018-06-25T03:55:42.499Z,1.97
2018-06-25T03:58:12.212Z,2.50
2018-06-25T04:00:41.568Z,2.00
2018-06-25T04:03:11.161Z,2.57
2018-06-25T04:05:40.540Z,2.10
2018-06-25T04:08:09.891Z,2.97
2018-06-25T04:10:39.243Z,2.40
2018-06-25T04:13:08.831Z,2.37
2018-06-25T04:15:38.927Z,2.63
2018-06-25T04:18:08.391Z,1.90
2018-06-25T04:20:37.789Z,2.10
2018-06-25T04:23:07.565Z,2.43
2018-06-25T04:25:36.893Z,2.40
2018-06-25T04:28:06.280Z,2.50
2018-06-25T04:30:35.636Z,2.10
2018-06-25T04:33:05.074Z,2.23
2018-06-25T04:35:34.420Z,2.10
2018-06-25T04:38:04.137Z,2.63
2018-06-25T04:40:33.519Z,2.50
2018-06-25T04:43:02.861Z,2.50
2018-06-25T04:45:32.495Z,2.80
2018-06-25T04:48:01.865Z,3.00
2018-06-25T04:50:31.631Z,2.10
2018-06-25T04:53:01.159Z,2.37
2018-06-25T04:55:30.496Z,2.40
2018-06-25T04:57:59.873Z,2.30
2018-06-25T05:00:29.215Z,2.17
2018-06-25T05:02:59.792Z,2.50
2018-06-25T05:05:29.167Z,2.40
2018-06-25T05:07:58.576Z,2.23
2018-06-25T05:10:27.944Z,2.80
2018-06-25T05:12:57.415Z,2.40
2018-06-25T05:15:26.748Z,2.20
2018-06-25T05:17:56.125Z,2.40
2018-06-25T05:20:25.468Z,2.53
2018-06-25T05:22:54.874Z,2.97
2018-06-25T05:25:24.786Z,2.40
2018-06-25T05:27:54.125Z,2.43
2018-06-25T05:30:23.498Z,2.40
2018-06-25T05:32:52.912Z,2.87
2018-06-25T05:35:22.260Z,2.37
2018-06-25T05:37:51.600Z,2.13
2018-06-25T05:40:21.024Z,2.27
2018-06-25T05:42:50.401Z,2.00
2018-06-25T05:45:20.144Z,2.83
2018-06-25T05:47:49.514Z,2.17
2018-06-25T05:50:18.861Z,2.30
2018-06-25T05:52:48.214Z,2.77
2018-06-25T05:55:17.597Z,3.20
2018-06-25T05:57:46.978Z,2.50
2018-06-25T06:00:16.333Z,2.67
2018-06-25T06:02:45.772Z,2.53
2018-06-25T06:05:15.158Z,2.70
2018-06-25T06:07:44.560Z,3.20
2018-06-25T06:10:15.000Z,2.40
2018-06-25T06:12:44.441Z,2.87
2018-06-25T06:15:13.825Z,2.60
2018-06-25T06:17:43.844Z,3.20
2018-06-25T06:20:13.219Z,3.10
2018-06-25T06:22:42.573Z,2.50
2018-06-25T06:25:11.973Z,3.47
2018-06-25T06:27:41.545Z,3.10
2018-06-25T06:30:10.964Z,2.80
2018-06-25T06:33:43.588Z,3.40
2018-06-25T06:36:12.939Z,3.30
2018-06-25T06:38:42.332Z,2.87
2018-06-25T06:41:12.451Z,2.83
2018-06-25T06:43:41.876Z,2.70
2018-06-25T06:46:11.280Z,3.20
2018-06-25T06:48:40.612Z,3.70
2018-06-25T06:51:09.985Z,3.57
2018-06-25T06:53:40.224Z,3.30
2018-06-25T06:56:09.619Z,3.07
2018-06-25T06:58:38.968Z,3.83
2018-06-25T07:01:08.617Z,3.47
2018-06-25T07:03:37.977Z,3.90
2018-06-25T07:06:07.369Z,3.30
2018-06-25T07:08:36.783Z,3.63
2018-06-25T07:11:06.411Z,3.80
2018-06-25T07:13:35.807Z,3.77
2018-06-25T07:16:05.556Z,4.60
2018-06-25T07:18:34.979Z,4.53
2018-06-25T07:21:04.383Z,4.13
2018-06-25T07:23:33.754Z,5.13
2018-06-25T07:26:03.545Z,4.67
2018-06-25T07:28:32.921Z,4.93
2018-06-25T07:31:02.252Z,5.13
2018-06-25T07:33:31.607Z,4.70
2018-06-25T07:36:01.044Z,4.20
2018-06-25T07:38:30.441Z,4.77
2018-06-25T07:40:59.822Z,4.60
2018-06-25T07:43:29.171Z,4.67
2018-06-25T07:45:58.594Z,4.10
2018-06-25T07:48:27.979Z,4.60
2018-06-25T07:50:57.983Z,4.17
2018-06-25T07:53:27.392Z,4.17
2018-06-25T07:55:56.987Z,5.47
2018-06-25T07:58:26.388Z,4.67
2018-06-25T08:00:55.780Z,4.27
2018-06-25T08:03:25.196Z,4.20
2018-06-25T08:05:54.599Z,5.03
2018-06-25T08:08:23.992Z,5.07
2018-06-25T08:10:53.752Z,4.87
2018-06-25T08:13:23.196Z,5.10
2018-06-25T08:15:52.594Z,5.30
2018-06-25T08:18:21.960Z,5.17
2018-06-25T08:20:51.387Z,5.50
2018-06-25T08:23:20.778Z,6.57
2018-06-25T08:25:50.124Z,5.40
2018-06-25T08:28:19.492Z,5.40
2018-06-25T08:30:48.849Z,5.20
2018-06-25T08:33:18.558Z,5.30
2018-06-25T08:35:48.035Z,4.23
2018-06-25T08:38:17.404Z,4.43
2018-06-25T08:40:46.810Z,4.73
2018-06-25T08:43:16.170Z,6.13
2018-06-25T08:45:45.608Z,5.50
2018-06-25T08:48:15.176Z,5.17
2018-06-25T08:50:44.683Z,4.10
2018-06-25T08:53:14.501Z,4.70
2018-06-25T08:55:43.892Z,4.80
2018-06-25T08:58:13.275Z,4.97
2018-06-25T09:00:43.399Z,5.00
2018-06-25T09:03:13.002Z,4.73
2018-06-25T09:05:42.452Z,4.53
2018-06-25T09:08:11.810Z,4.27
2018-06-25T09:10:41.406Z,4.87
2018-06-25T09:13:10.795Z,3.80
2018-06-25T09:15:40.183Z,4.70
2018-06-25T09:18:09.604Z,4.30
2018-06-25T09:20:38.991Z,3.97
2018-06-25T09:23:08.737Z,4.80
2018-06-25T09:25:38.101Z,4.60
2018-06-25T09:28:07.448Z,3.93
2018-06-25T09:30:36.835Z,4.10
2018-06-25T09:33:06.337Z,4.40
2018-06-25T09:35:35.687Z,3.30
2018-06-25T09:38:05.162Z,3.47
2018-06-25T09:40:34.531Z,4.20
2018-06-25T09:43:03.945Z,3.80
2018-06-25T09:45:33.357Z,3.27
2018-06-25T09:48:02.956Z,4.10
2018-06-25T09:50:32.320Z,3.70
2018-06-25T09:53:01.716Z,3.60
2018-06-25T09:55:31.191Z,3.77
2018-06-25T09:58:00.545Z,2.83
2018-06-25T10:00:35.173Z,3.63
2018-06-25T10:03:04.599Z,3.67
2018-06-25T10:05:34.004Z,3.00
2018-06-25T10:08:03.357Z,3.57
2018-06-25T10:10:32.807Z,2.87
2018-06-25T10:13:02.340Z,2.67
2018-06-25T10:15:31.761Z,3.33
2018-06-25T10:18:01.188Z,3.10
2018-06-25T10:20:30.858Z,3.00
2018-06-25T10:23:00.198Z,3.70
2018-06-25T10:25:29.580Z,3.20
2018-06-25T10:27:58.947Z,4.07
2018-06-25T10:30:28.293Z,3.10
2018-06-25T10:32:57.648Z,3.80
2018-06-25T10:35:27.021Z,3.83
2018-06-25T10:37:56.436Z,3.37
2018-06-25T10:40:25.820Z,3.40
2018-06-25T10:42:55.192Z,3.27
2018-06-25T10:45:24.572Z,3.00
2018-06-25T10:47:54.017Z,3.90
2018-06-25T10:50:23.382Z,3.40
2018-06-25T10:52:53.543Z,3.90
2018-06-25T10:55:22.926Z,3.63
2018-06-25T10:57:52.276Z,3.37
2018-06-25T11:00:22.164Z,3.40
2018-06-25T11:02:51.572Z,3.73
2018-06-25T11:05:20.965Z,4.30
2018-06-25T11:07:50.461Z,3.80
2018-06-25T11:10:19.912Z,3.37
2018-06-25T11:12:49.348Z,4.67
2018-06-25T11:15:49.261Z,4.87
2018-06-25T11:18:18.608Z,4.50
2018-06-25T11:20:48.032Z,4.87
2018-06-25T11:23:17.424Z,5.20
2018-06-25T11:25:46.840Z,4.80
2018-06-25T11:28:16.197Z,5.53
2018-06-25T11:30:45.678Z,5.97
2018-06-25T11:33:15.033Z,5.17
2018-06-25T11:35:44.382Z,5.17
2018-06-25T11:38:14.689Z,4.87
2018-06-25T11:40:44.272Z,3.70
2018-06-25T11:43:14.326Z,3.83
2018-06-25T11:45:43.739Z,3.47
2018-06-25T11:48:13.168Z,3.83
2018-06-25T11:50:42.551Z,3.67
2018-06-25T11:53:11.923Z,4.33
2018-06-25T11:55:41.412Z,4.00
2018-06-25T11:58:11.179Z,4.50
2018-06-25T12:00:40.523Z,3.73
2018-06-25T12:03:09.957Z,3.13
2018-06-25T12:05:39.469Z,2.90
2018-06-25T12:08:08.840Z,4.00
2018-06-25T12:10:38.229Z,4.23
2018-06-25T12:13:07.803Z,3.50
2018-06-25T12:15:37.212Z,3.33
2018-06-25T12:18:06.652Z,2.70
2018-06-25T12:20:35.995Z,3.73
2018-06-25T12:23:05.572Z,3.27
2018-06-25T12:25:35.135Z,3.00
2018-06-25T12:28:04.608Z,3.13
2018-06-25T12:30:33.968Z,2.83
2018-06-25T12:33:03.356Z,3.10
2018-06-25T12:35:32.745Z,3.40
2018-06-25T12:38:02.215Z,3.63
2018-06-25T12:40:31.736Z,4.27
2018-06-25T12:43:01.195Z,3.80
2018-06-25T12:45:30.680Z,4.60
2018-06-25T12:48:00.229Z,4.63
2018-06-25T12:50:29.569Z,3.40
2018-06-25T12:52:58.912Z,3.70
2018-06-25T12:55:28.287Z,3.70
2018-06-25T12:57:57.688Z,3.23
2018-06-25T13:00:27.095Z,3.60
2018-06-25T13:02:56.434Z,2.83
2018-06-25T13:05:25.817Z,3.77
2018-06-25T13:07:55.204Z,3.60
2018-06-25T13:10:24.636Z,3.63
2018-06-25T13:12:54.107Z,3.37
2018-06-25T13:15:23.720Z,3.37
2018-06-25T13:17:53.093Z,3.33
2018-06-25T13:20:22.450Z,3.50
2018-06-25T13:22:51.816Z,3.30
2018-06-25T13:25:21.438Z,3.90
2018-06-25T13:27:50.782Z,3.30
2018-06-25T13:30:24.637Z,3.33
2018-06-25T13:32:54.001Z,3.37
2018-06-25T13:35:23.361Z,3.77
2018-06-25T13:37:52.717Z,2.90
2018-06-25T13:40:22.075Z,3.77
2018-06-25T13:42:51.468Z,3.87
2018-06-25T13:45:20.845Z,3.50
2018-06-25T13:47:50.191Z,3.30
2018-06-25T13:50:19.529Z,3.03
2018-06-25T13:52:48.991Z,3.00
2018-06-25T13:55:18.339Z,3.50
2018-06-25T13:57:48.631Z,4.20
2018-06-25T14:00:17.988Z,3.80
2018-06-25T14:02:47.439Z,3.30
2018-06-25T14:05:16.804Z,3.80
2018-06-25T14:07:46.193Z,3.40
2018-06-25T14:10:15.588Z,3.40
2018-06-25T14:12:45.333Z,3.83
2018-06-25T14:15:14.693Z,3.00
2018-06-25T14:17:44.072Z,2.97
2018-06-25T14:20:13.686Z,2.90
2018-06-25T14:22:43.160Z,3.00
2018-06-25T14:25:12.690Z,3.23
2018-06-25T14:27:47.588Z,2.87
2018-06-25T14:30:22.183Z,2.70
2018-06-25T14:32:55.713Z,2.77
2018-06-25T14:35:25.091Z,3.10
2018-06-25T14:37:54.483Z,2.80
2018-06-25T14:40:24.295Z,2.80
2018-06-25T14:42:54.004Z,8.13
2018-06-25T14:45:23.353Z,3.20
2018-06-25T14:47:52.833Z,3.23
2018-06-25T14:50:22.186Z,2.90
2018-06-25T14:52:52.163Z,3.37
2018-06-25T14:55:22.095Z,3.53
2018-06-25T14:57:52.281Z,3.53
2018-06-25T15:00:22.192Z,3.80
2018-06-25T15:02:52.199Z,3.63
2018-06-25T15:05:21.905Z,2.97
2018-06-25T15:07:51.474Z,3.00
2018-06-25T15:10:20.837Z,3.30
2018-06-25T15:12:50.198Z,3.30
2018-06-25T15:15:19.547Z,3.50
2018-06-25T15:17:49.672Z,2.60
2018-06-25T15:20:19.092Z,3.20
2018-06-25T15:22:48.504Z,3.40
2018-06-25T15:25:17.930Z,3.53
2018-06-25T15:27:47.273Z,3.40
2018-06-25T15:30:16.782Z,2.90
2018-06-25T15:32:46.148Z,3.10
2018-06-25T15:35:15.480Z,2.63
2018-06-25T15:37:44.866Z,3.30
2018-06-25T15:40:14.288Z,3.30
2018-06-25T15:42:43.713Z,2.60
2018-06-25T15:45:13.401Z,3.27
2018-06-25T15:47:42.788Z,2.90
2018-06-25T15:50:12.171Z,3.03
2018-06-25T15:52:41.716Z,3.50
2018-06-25T15:55:11.753Z,3.93
2018-06-25T15:57:41.114Z,3.17
2018-06-25T16:00:10.564Z,3.73
2018-06-25T16:02:40.165Z,2.80
2018-06-25T16:05:09.568Z,3.67
2018-06-25T16:07:38.985Z,3.23
2018-06-25T16:10:08.340Z,3.20
2018-06-25T16:12:37.723Z,3.40
2018-06-25T16:15:07.132Z,3.47
2018-06-25T16:17:37.032Z,3.20
2018-06-25T16:20:07.101Z,4.17
2018-06-25T16:22:37.492Z,3.97
2018-06-25T16:25:07.820Z,3.40
2018-06-25T16:27:37.693Z,3.23
2018-06-25T16:30:07.366Z,2.43
2018-06-25T16:32:37.052Z,2.57
2018-06-25T16:35:06.780Z,2.97
2018-06-25T16:37:37.123Z,3.10
2018-06-25T16:40:06.696Z,2.50
2018-06-25T16:42:36.085Z,2.80
2018-06-25T16:45:06.188Z,2.77
2018-06-25T16:47:35.683Z,3.23
2018-06-25T16:50:06.041Z,3.07
2018-06-25T16:52:35.468Z,3.90
2018-06-25T16:55:05.240Z,3.23
2018-06-25T16:57:34.597Z,3.40
2018-06-25T17:00:04.384Z,3.50
2018-06-25T17:02:33.738Z,3.80
2018-06-25T17:05:03.309Z,3.43
2018-06-25T17:07:32.775Z,3.60
2018-06-25T17:10:02.228Z,4.07
2018-06-25T17:12:31.407Z,3.33
2018-06-25T17:15:00.792Z,3.60
2018-06-25T17:17:30.119Z,3.30
2018-06-25T17:19:59.500Z,3.37
2018-06-25T17:22:28.900Z,3.90
2018-06-25T17:24:58.287Z,3.87
2018-06-25T17:27:27.704Z,3.43
2018-06-25T17:29:57.240Z,3.00
2018-06-25T17:32:26.695Z,3.60
2018-06-25T17:34:56.057Z,3.50
2018-06-25T17:37:26.114Z,2.97
2018-06-25T17:39:55.515Z,3.80
2018-06-25T17:42:24.931Z,3.63
2018-06-25T17:44:54.636Z,3.50
2018-06-25T17:47:23.984Z,3.30
2018-06-25T17:49:53.356Z,3.73
2018-06-25T17:52:22.735Z,2.93
2018-06-25T17:54:52.083Z,3.40
2018-06-25T17:57:21.449Z,4.30
2018-06-25T17:59:50.799Z,3.57
2018-06-25T18:02:20.239Z,3.10
2018-06-25T18:04:49.596Z,3.27
2018-06-25T18:07:18.980Z,3.27
2018-06-25T18:09:48.383Z,3.77
2018-06-25T18:12:18.008Z,3.30
2018-06-25T18:14:47.820Z,3.30
2018-06-25T18:17:17.164Z,3.43
2018-06-25T18:19:46.577Z,4.00
2018-06-25T18:22:16.078Z,4.20
2018-06-25T18:24:45.440Z,4.23
2018-06-25T18:27:14.787Z,3.93
2018-06-25T18:29:44.193Z,4.40
2018-06-25T18:32:13.582Z,3.80
2018-06-25T18:34:43.001Z,3.50
2018-06-25T18:37:12.381Z,3.50
2018-06-25T18:39:41.955Z,3.40
2018-06-25T18:42:11.292Z,3.77
2018-06-25T18:44:40.766Z,4.07
2018-06-25T18:47:10.317Z,4.40
2018-06-25T18:49:39.780Z,2.93
2018-06-25T18:52:09.124Z,3.40
2018-06-25T18:54:38.543Z,3.00
2018-06-25T18:57:08.015Z,3.00
2018-06-25T18:59:37.544Z,3.00
2018-06-25T19:02:07.813Z,3.70
2018-06-25T19:04:37.185Z,3.03
2018-06-25T19:07:06.667Z,3.33
2018-06-25T19:09:36.369Z,2.93
2018-06-25T19:12:05.805Z,3.50
2018-06-25T19:14:35.323Z,3.30
2018-06-25T19:17:04.812Z,2.93
2018-06-25T19:19:34.336Z,3.30
2018-06-25T19:22:03.717Z,3.00
2018-06-25T19:24:33.308Z,2.80
2018-06-25T19:27:02.740Z,3.40
2018-06-25T19:29:32.100Z,2.90
2018-06-25T19:32:01.529Z,2.47
2018-06-25T19:34:30.871Z,2.60
2018-06-25T19:37:00.614Z,3.67
2018-06-25T19:39:30.533Z,2.73
2018-06-25T19:41:59.943Z,2.47
2018-06-25T19:44:29.857Z,2.97
2018-06-25T19:46:59.237Z,2.27
2018-06-25T19:49:28.653Z,2.90
2018-06-25T19:51:58.624Z,2.87
2018-06-25T19:54:28.007Z,2.70
2018-06-25T19:56:59.044Z,2.73
2018-06-25T19:59:28.382Z,2.43
2018-06-25T20:01:57.760Z,2.20
2018-06-25T20:04:27.849Z,2.30
2018-06-25T20:06:57.884Z,2.27
2018-06-25T20:09:27.288Z,2.40
2018-06-25T20:11:56.646Z,2.57
2018-06-25T20:14:26.359Z,1.90
2018-06-25T20:16:56.091Z,2.47
2018-06-25T20:19:25.508Z,2.57
2018-06-25T20:21:55.037Z,2.00
2018-06-25T20:24:24.423Z,2.27
2018-06-25T20:26:53.904Z,2.20
2018-06-25T20:29:24.261Z,2.23
2018-06-25T20:31:53.644Z,1.97
2018-06-25T20:34:23.439Z,1.90
2018-06-25T20:36:52.982Z,1.97
2018-06-25T20:39:22.535Z,2.23
2018-06-25T20:41:51.888Z,2.20
2018-06-25T20:44:21.263Z,2.20
2018-06-25T20:46:50.671Z,2.40
2018-06-25T20:49:34.927Z,2.13
2018-06-25T20:52:04.319Z,2.50
2018-06-25T20:54:33.670Z,2.17
2018-06-25T20:57:03.161Z,2.13
2018-06-25T20:59:32.940Z,2.27
2018-06-25T21:02:03.330Z,2.37
2018-06-25T21:04:32.919Z,1.93
2018-06-25T21:07:03.418Z,2.87
2018-06-25T21:09:32.798Z,1.97
2018-06-25T21:12:02.162Z,1.67
2018-06-25T21:14:31.576Z,2.23
2018-06-25T21:17:00.948Z,2.50
2018-06-25T21:19:30.907Z,2.30
2018-06-25T21:22:00.626Z,1.90
2018-06-25T21:24:29.959Z,2.83
2018-06-25T21:26:59.354Z,2.60
2018-06-25T21:29:28.726Z,2.40
2018-06-25T21:31:58.112Z,2.53
2018-06-25T21:34:27.510Z,2.33
2018-06-25T21:36:57.119Z,2.60
2018-06-25T21:39:26.492Z,2.30
2018-06-25T21:41:55.846Z,1.90
2018-06-25T21:44:25.263Z,2.50
2018-06-25T21:46:54.640Z,2.30
2018-06-25T21:49:24.830Z,1.80
2018-06-25T21:51:54.236Z,2.50
2018-06-25T21:54:23.599Z,2.20
2018-06-25T21:56:52.996Z,2.93
2018-06-25T21:59:22.415Z,2.47
2018-06-25T22:01:54.676Z,2.40
2018-06-25T22:04:24.397Z,2.33
2018-06-25T22:06:53.801Z,1.87
2018-06-25T22:09:23.161Z,2.17
2018-06-25T22:11:52.547Z,1.57
2018-06-25T22:14:21.913Z,1.93
2018-06-25T22:16:51.340Z,2.43
2018-06-25T22:19:20.967Z,1.50
2018-06-25T22:21:50.730Z,2.00
2018-06-25T22:24:20.107Z,2.30
2018-06-25T22:26:49.486Z,1.80
2018-06-25T22:29:18.843Z,2.20
2018-06-25T22:31:48.602Z,2.93
2018-06-25T22:34:18.588Z,2.30
2018-06-25T22:36:48.308Z,2.47
2018-06-25T22:39:17.679Z,2.50
2018-06-25T22:41:47.027Z,2.60
2018-06-25T22:44:16.360Z,3.07
2018-06-25T22:46:45.711Z,2.50
2018-06-25T22:49:15.079Z,2.87
2018-06-25T22:51:44.415Z,2.90
2018-06-25T22:54:14.057Z,2.57
2018-06-25T22:56:43.415Z,2.10
2018-06-25T22:59:12.985Z,2.97
2018-06-25T23:01:42.307Z,3.10
2018-06-25T23:04:11.661Z,2.43
2018-06-25T23:06:41.753Z,2.67
2018-06-25T23:09:12.174Z,2.23
2018-06-25T23:11:41.661Z,2.50
2018-06-25T23:14:10.991Z,2.63
2018-06-25T23:16:40.538Z,2.77
2018-06-25T23:19:09.895Z,2.47
2018-06-25T23:21:39.315Z,2.23
2018-06-25T23:24:08.695Z,2.20
2018-06-25T23:26:38.042Z,2.50
2018-06-25T23:29:07.386Z,2.67
2018-06-25T23:31:36.733Z,3.10
2018-06-25T23:34:06.108Z,2.30
2018-06-25T23:36:35.531Z,2.60
2018-06-25T23:39:07.959Z,2.53
2018-06-25T23:41:37.960Z,3.30
2018-06-25T23:44:07.706Z,2.50
2018-06-25T23:46:37.101Z,2.47
2018-06-25T23:49:06.815Z,3.63
2018-06-25T23:51:36.483Z,3.70
2018-06-25T23:54:06.550Z,2.80
2018-06-25T23:56:36.787Z,3.40
2018-06-25T23:59:06.117Z,3.33
